createdAt,value
2022-09-30T00:00:10.961Z,21.58
2022-09-30T00:02:38.649Z,23.17
2022-09-30T00:05:07.003Z,19.75
2022-09-30T00:07:34.682Z,24.42
2022-09-30T00:10:02.829Z,21.55
2022-09-30T00:12:30.919Z,21.70
2022-09-30T00:14:59.946Z,18.98
2022-09-30T00:17:28.238Z,18.90
2022-09-30T00:19:55.896Z,17.73
2022-09-30T00:22:23.559Z,20.63
2022-09-30T00:24:51.450Z,20.77
2022-09-30T00:27:19.911Z,21.45
2022-09-30T00:29:47.546Z,25.75
2022-09-30T00:32:16.603Z,25.13
2022-09-30T00:34:44.385Z,25.30
2022-09-30T00:37:15.141Z,21.70
2022-09-30T00:39:42.809Z,24.08
2022-09-30T00:42:14.158Z,21.60
2022-09-30T00:44:53.536Z,22.70
2022-09-30T00:47:50.375Z,26.90
2022-09-30T00:50:28.919Z,23.48
2022-09-30T00:53:03.167Z,20.15
2022-09-30T00:55:47.739Z,24.30
2022-09-30T00:58:21.239Z,21.13
2022-09-30T01:00:49.348Z,25.48
2022-09-30T01:03:20.555Z,20.60
2022-09-30T01:05:48.222Z,22.90
2022-09-30T01:08:18.598Z,26.23
2022-09-30T01:10:46.501Z,27.50
2022-09-30T01:13:15.555Z,27.48
2022-09-30T01:15:58.965Z,28.42
2022-09-30T01:18:35.678Z,28.85
2022-09-30T01:21:28.083Z,27.25
2022-09-30T01:24:13.888Z,25.92
2022-09-30T01:26:57.608Z,25.77
2022-09-30T01:29:45.267Z,26.05
2022-09-30T01:32:20.803Z,27.35
2022-09-30T01:37:34.011Z,22.90
2022-09-30T01:40:06.375Z,25.38
2022-09-30T01:42:42.489Z,23.70
2022-09-30T01:45:17.906Z,25.85
2022-09-30T01:47:52.078Z,28.33
2022-09-30T01:50:25.002Z,26.70
2022-09-30T01:53:01.708Z,30.77
2022-09-30T01:55:34.158Z,39.03
2022-09-30T01:58:06.993Z,30.27
2022-09-30T02:00:39.556Z,27.48
2022-09-30T02:03:16.271Z,25.88
2022-09-30T02:05:51.082Z,22.63
2022-09-30T02:08:24.621Z,26.02
2022-09-30T02:10:57.157Z,24.52
2022-09-30T02:13:32.924Z,28.38
2022-09-30T02:16:13.006Z,21.83
2022-09-30T02:18:47.074Z,22.40
2022-09-30T02:21:19.143Z,22.90
2022-09-30T02:23:50.724Z,21.67
2022-09-30T02:26:23.048Z,21.67
2022-09-30T02:28:55.229Z,21.85
2022-09-30T02:31:25.448Z,22.98
2022-09-30T02:33:58.778Z,22.92
2022-09-30T02:36:31.839Z,21.33
2022-09-30T02:39:05.097Z,23.15
2022-09-30T02:41:39.865Z,25.15
2022-09-30T02:44:07.911Z,23.92
2022-09-30T02:46:44.684Z,22.77
2022-09-30T02:49:24.173Z,40.72
2022-09-30T02:52:05.436Z,27.25
2022-09-30T02:54:37.521Z,24.35
2022-09-30T02:57:15.893Z,28.25
2022-09-30T02:59:43.651Z,25.92
2022-09-30T03:02:11.424Z,25.60
2022-09-30T03:04:42.808Z,24.30
2022-09-30T03:07:11.510Z,23.23
2022-09-30T03:09:39.566Z,24.30
2022-09-30T03:12:16.724Z,22.55
2022-09-30T03:15:01.375Z,19.25
2022-09-30T03:17:49.620Z,21.13
2022-09-30T03:20:34.343Z,20.27
2022-09-30T03:23:24.531Z,24.10
2022-09-30T03:25:59.992Z,23.38
2022-09-30T03:28:32.344Z,24.50
2022-09-30T03:31:07.300Z,32.30
2022-09-30T03:33:45.250Z,23.35
2022-09-30T03:36:20.056Z,20.73
2022-09-30T03:38:52.997Z,23.20
2022-09-30T03:41:28.544Z,25.25
2022-09-30T03:46:31.631Z,22.20
2022-09-30T03:49:03.415Z,25.40
2022-09-30T03:51:33.777Z,22.00
2022-09-30T03:54:01.504Z,24.05
2022-09-30T03:56:31.808Z,24.10
2022-09-30T03:59:01.598Z,20.90
2022-09-30T04:01:29.503Z,25.08
2022-09-30T04:03:57.253Z,25.77
2022-09-30T04:06:26.175Z,26.27
2022-09-30T04:08:55.242Z,27.85
2022-09-30T04:11:23.132Z,23.75
2022-09-30T04:13:50.857Z,26.55
2022-09-30T04:16:19.043Z,29.17
2022-09-30T04:18:46.791Z,31.13
2022-09-30T04:21:15.697Z,31.08
2022-09-30T04:23:43.927Z,26.60
2022-09-30T04:26:16.305Z,24.95
2022-09-30T04:28:44.516Z,23.52
2022-09-30T04:31:13.553Z,26.50
2022-09-30T04:33:41.717Z,27.40
2022-09-30T04:36:09.585Z,26.25
2022-09-30T04:38:37.384Z,23.10
2022-09-30T04:41:06.414Z,30.17
2022-09-30T04:43:35.775Z,25.60
2022-09-30T04:46:03.605Z,26.83
2022-09-30T04:48:32.362Z,30.27
2022-09-30T04:51:00.917Z,28.08
2022-09-30T04:53:29.342Z,27.58
2022-09-30T04:56:00.971Z,31.15
2022-09-30T04:58:32.224Z,28.50
2022-09-30T05:01:05.139Z,38.03
2022-09-30T05:03:32.902Z,35.13
2022-09-30T05:06:00.658Z,37.40
2022-09-30T05:08:28.729Z,28.27
2022-09-30T05:10:58.078Z,27.27
2022-09-30T05:13:26.646Z,33.80
2022-09-30T05:15:54.395Z,25.27
2022-09-30T05:18:26.380Z,22.10
2022-09-30T05:20:55.076Z,23.70
2022-09-30T05:23:22.821Z,21.90
2022-09-30T05:25:51.655Z,21.13
2022-09-30T05:28:19.983Z,21.83
2022-09-30T05:30:49.926Z,24.63
2022-09-30T05:33:18.124Z,22.83
2022-09-30T05:35:47.821Z,23.45
2022-09-30T05:38:15.518Z,22.05
2022-09-30T05:40:43.205Z,24.20
2022-09-30T05:43:11.363Z,23.15
2022-09-30T05:45:39.308Z,26.48
2022-09-30T05:48:07.782Z,27.88
2022-09-30T05:50:35.528Z,26.77
2022-09-30T05:53:04.586Z,27.63
2022-09-30T05:55:35.835Z,29.80
2022-09-30T05:58:07.075Z,26.05
2022-09-30T06:00:34.796Z,29.92
2022-09-30T06:03:02.560Z,25.88
2022-09-30T06:05:30.571Z,26.20
2022-09-30T06:07:58.274Z,26.20
2022-09-30T06:10:27.425Z,21.63
2022-09-30T06:12:55.197Z,24.85
2022-09-30T06:15:22.910Z,29.50
2022-09-30T06:17:53.903Z,28.13
2022-09-30T06:20:21.929Z,31.10
2022-09-30T06:22:49.863Z,27.90
2022-09-30T06:25:17.909Z,29.08
2022-09-30T06:27:47.631Z,31.50
2022-09-30T06:30:15.745Z,31.25
2022-09-30T06:32:44.002Z,27.38
2022-09-30T06:35:12.099Z,28.13
2022-09-30T06:37:41.924Z,25.08
2022-09-30T06:40:10.623Z,30.77
2022-09-30T06:42:38.368Z,27.83
2022-09-30T06:45:11.187Z,27.50
2022-09-30T06:47:45.413Z,29.20
2022-09-30T06:50:25.444Z,31.95
2022-09-30T06:52:57.892Z,30.77
2022-09-30T06:55:27.112Z,31.60
2022-09-30T06:57:55.459Z,27.27
2022-09-30T07:00:24.636Z,30.95
2022-09-30T07:02:52.432Z,28.15
2022-09-30T07:05:20.232Z,29.90
2022-09-30T07:07:49.163Z,31.20
2022-09-30T07:10:17.071Z,31.13
2022-09-30T07:12:44.930Z,27.40
2022-09-30T07:15:13.893Z,26.48
2022-09-30T07:17:44.049Z,28.70
2022-09-30T07:20:12.130Z,29.70
2022-09-30T07:22:40.723Z,26.88
2022-09-30T07:25:09.725Z,26.08
2022-09-30T07:27:37.466Z,26.48
2022-09-30T07:30:14.227Z,25.08
2022-09-30T07:32:45.396Z,27.30
2022-09-30T07:35:13.597Z,24.73
2022-09-30T07:37:41.548Z,23.35
2022-09-30T07:40:10.481Z,27.10
2022-09-30T07:42:43.217Z,24.02
2022-09-30T07:45:12.104Z,26.45
2022-09-30T07:47:39.989Z,21.75
2022-09-30T07:50:10.969Z,21.15
2022-09-30T07:52:39.573Z,19.52
2022-09-30T07:55:08.031Z,20.70
2022-09-30T07:57:35.876Z,19.00
2022-09-30T08:00:17.260Z,18.05
2022-09-30T08:02:52.780Z,17.40
2022-09-30T08:05:22.208Z,17.83
2022-09-30T08:07:50.433Z,16.65
2022-09-30T08:12:54.455Z,15.25
2022-09-30T08:15:25.905Z,16.95
2022-09-30T08:17:53.934Z,10.65
2022-09-30T08:20:23.625Z,13.15
2022-09-30T08:22:53.748Z,8.40
2022-09-30T08:25:21.529Z,10.30
2022-09-30T08:27:49.412Z,9.80
2022-09-30T08:30:17.445Z,8.90
2022-09-30T08:32:45.342Z,9.63
2022-09-30T08:35:13.125Z,11.00
2022-09-30T08:37:42.329Z,8.77
2022-09-30T08:40:20.386Z,7.65
2022-09-30T08:43:03.694Z,6.72
2022-09-30T08:45:43.547Z,6.72
2022-09-30T08:48:28.783Z,5.28
2022-09-30T08:51:08.082Z,5.95
2022-09-30T08:53:42.064Z,4.82
2022-09-30T08:56:18.613Z,6.60
2022-09-30T08:58:49.851Z,6.05
2022-09-30T09:01:23.569Z,4.88
2022-09-30T09:03:51.414Z,5.47
2022-09-30T09:06:27.268Z,4.38
2022-09-30T09:09:10.483Z,5.50
2022-09-30T09:11:53.545Z,4.53
2022-09-30T09:14:33.644Z,9.30
2022-09-30T09:17:15.261Z,4.68
2022-09-30T09:19:46.874Z,4.60
2022-09-30T09:22:15.147Z,4.68
2022-09-30T09:24:47.335Z,5.07
2022-09-30T09:27:21.847Z,6.05
2022-09-30T09:30:00.157Z,4.47
2022-09-30T09:32:29.504Z,4.68
2022-09-30T09:35:01.424Z,5.53
2022-09-30T09:37:58.259Z,6.50
2022-09-30T09:40:35.898Z,4.80
2022-09-30T09:43:14.227Z,3.25
2022-09-30T09:45:48.617Z,2.95
2022-09-30T09:48:17.463Z,2.70
2022-09-30T09:50:56.871Z,3.03
2022-09-30T09:53:41.352Z,2.30
2022-09-30T09:56:18.675Z,2.47
2022-09-30T09:59:08.996Z,2.67
2022-09-30T10:01:39.010Z,5.82
2022-09-30T10:04:19.332Z,3.10
2022-09-30T10:06:54.141Z,2.53
2022-09-30T10:09:36.879Z,3.17
2022-09-30T10:12:28.498Z,2.90
2022-09-30T10:15:02.422Z,2.10
2022-09-30T10:17:32.986Z,4.15
2022-09-30T10:20:07.077Z,3.20
2022-09-30T10:22:36.863Z,2.35
2022-09-30T10:25:19.044Z,3.38
2022-09-30T10:27:57.005Z,2.17
2022-09-30T10:30:33.572Z,3.35
2022-09-30T10:33:04.262Z,3.00
2022-09-30T10:35:32.322Z,1.83
2022-09-30T10:38:01.401Z,2.40
2022-09-30T10:40:31.244Z,1.77
2022-09-30T10:43:00.299Z,1.92
2022-09-30T10:45:33.976Z,1.60
2022-09-30T10:48:07.569Z,2.03
2022-09-30T10:50:35.636Z,1.55
2022-09-30T10:53:12.314Z,1.95
2022-09-30T10:55:44.800Z,1.95
2022-09-30T10:58:27.421Z,1.98
2022-09-30T11:00:59.206Z,1.80
2022-09-30T11:03:36.237Z,1.38
2022-09-30T11:06:05.214Z,2.35
2022-09-30T11:08:40.147Z,2.35
2022-09-30T11:11:14.025Z,1.83
2022-09-30T11:13:50.088Z,1.77
2022-09-30T11:16:26.164Z,1.17
2022-09-30T11:19:01.636Z,1.23
2022-09-30T11:21:36.451Z,1.42
2022-09-30T11:24:17.919Z,1.70
2022-09-30T11:26:51.598Z,2.58
2022-09-30T11:29:40.471Z,1.25
2022-09-30T11:32:19.707Z,1.48
2022-09-30T11:34:57.785Z,2.30
2022-09-30T11:37:40.164Z,1.70
2022-09-30T11:40:31.252Z,1.70
2022-09-30T11:43:09.635Z,3.15
2022-09-30T11:45:56.977Z,4.13
2022-09-30T11:48:39.225Z,3.00
2022-09-30T11:51:15.501Z,2.47
2022-09-30T11:53:53.205Z,4.03
2022-09-30T11:56:39.217Z,3.67
2022-09-30T12:01:45.121Z,2.08
2022-09-30T12:04:17.034Z,4.35
2022-09-30T12:06:50.535Z,2.33
2022-09-30T12:09:23.937Z,1.98
2022-09-30T12:11:57.615Z,1.92
2022-09-30T12:14:31.064Z,2.70
2022-09-30T12:17:05.648Z,2.08
2022-09-30T12:19:39.230Z,2.00
2022-09-30T12:22:13.024Z,1.50
2022-09-30T12:24:42.885Z,2.35
2022-09-30T12:27:17.708Z,1.58
2022-09-30T12:30:12.690Z,4.97
2022-09-30T12:33:11.688Z,1.58
2022-09-30T12:36:00.020Z,1.50
2022-09-30T12:38:43.182Z,1.77
2022-09-30T12:41:25.543Z,3.35
2022-09-30T12:44:30.472Z,3.22
2022-09-30T12:47:22.265Z,1.70
2022-09-30T12:49:52.096Z,1.55
2022-09-30T12:52:22.561Z,3.78
2022-09-30T12:54:54.634Z,1.80
2022-09-30T12:57:27.318Z,4.47
2022-09-30T12:59:59.066Z,2.17
2022-09-30T13:02:35.520Z,2.05
2022-09-30T13:05:40.279Z,1.50
2022-09-30T13:08:27.599Z,1.30
2022-09-30T13:10:59.269Z,1.55
2022-09-30T13:13:30.573Z,1.58
2022-09-30T13:16:03.253Z,1.92
2022-09-30T13:19:02.906Z,1.73
2022-09-30T13:21:32.183Z,2.28
2022-09-30T13:24:01.784Z,1.60
2022-09-30T13:26:40.752Z,1.80
2022-09-30T13:29:48.365Z,1.67
2022-09-30T13:32:33.700Z,2.03
2022-09-30T13:35:02.080Z,1.92
2022-09-30T13:37:38.192Z,2.45
2022-09-30T13:40:18.230Z,4.32
2022-09-30T13:42:54.438Z,2.17
2022-09-30T13:45:33.898Z,2.10
2022-09-30T13:48:10.959Z,2.35
2022-09-30T13:50:46.537Z,1.70
2022-09-30T13:55:50.839Z,1.52
2022-09-30T13:58:39.492Z,1.70
2022-09-30T14:01:14.576Z,1.60
2022-09-30T14:04:04.639Z,2.70
2022-09-30T14:06:41.952Z,2.03
2022-09-30T14:09:30.150Z,5.32
2022-09-30T14:12:29.933Z,3.92
2022-09-30T14:15:35.891Z,1.98
2022-09-30T14:18:30.268Z,2.50
2022-09-30T14:21:18.341Z,1.65
2022-09-30T14:23:46.208Z,1.58
2022-09-30T14:26:33.461Z,1.65
2022-09-30T14:29:10.501Z,2.05
2022-09-30T14:31:45.053Z,3.28
2022-09-30T14:34:14.362Z,2.63
2022-09-30T14:36:42.611Z,1.70
2022-09-30T14:39:17.071Z,3.03
2022-09-30T14:41:51.280Z,1.95
2022-09-30T14:44:21.377Z,1.88
2022-09-30T14:46:51.297Z,4.00
2022-09-30T14:49:29.893Z,2.30
2022-09-30T14:51:59.917Z,1.85
2022-09-30T14:54:29.105Z,3.22
2022-09-30T14:56:57.912Z,2.00
2022-09-30T14:59:28.731Z,1.90
2022-09-30T15:02:00.596Z,3.95
2022-09-30T15:04:31.845Z,2.35
2022-09-30T15:07:01.392Z,2.13
2022-09-30T15:09:33.356Z,2.13
2022-09-30T15:12:06.440Z,3.63
2022-09-30T15:14:36.192Z,2.63
2022-09-30T15:17:06.309Z,1.90
2022-09-30T15:19:35.996Z,2.65
2022-09-30T15:22:05.846Z,2.47
2022-09-30T15:24:36.357Z,2.55
2022-09-30T15:27:05.602Z,2.55
2022-09-30T15:29:33.295Z,4.55
2022-09-30T15:32:05.726Z,2.63
2022-09-30T15:34:34.135Z,2.00
2022-09-30T15:37:06.728Z,2.22
2022-09-30T15:39:55.108Z,2.63
2022-09-30T15:42:32.053Z,5.60
2022-09-30T15:44:59.745Z,3.83
2022-09-30T15:47:29.371Z,3.08
2022-09-30T15:49:57.107Z,2.80
2022-09-30T15:52:30.726Z,2.33
2022-09-30T15:54:59.049Z,2.30
2022-09-30T15:57:46.727Z,2.40
2022-09-30T16:00:35.745Z,2.50
2022-09-30T16:03:25.619Z,2.78
2022-09-30T16:05:54.132Z,2.85
2022-09-30T16:08:25.378Z,3.53
2022-09-30T16:10:56.566Z,2.97
2022-09-30T16:13:28.815Z,3.78
2022-09-30T16:15:58.365Z,6.00
2022-09-30T16:18:33.980Z,2.40
2022-09-30T16:21:05.394Z,3.17
2022-09-30T16:23:38.744Z,4.32
2022-09-30T16:26:14.258Z,2.58
2022-09-30T16:28:43.291Z,6.13
2022-09-30T16:31:11.651Z,3.60
2022-09-30T16:33:43.380Z,60.05
2022-09-30T16:36:11.930Z,40.65
2022-09-30T16:38:39.778Z,16.33
2022-09-30T16:41:07.417Z,8.77
2022-09-30T16:43:35.038Z,5.38
2022-09-30T16:46:03.470Z,6.47
2022-09-30T16:48:31.476Z,7.78
2022-09-30T16:51:04.534Z,6.40
2022-09-30T16:53:32.312Z,5.93
2022-09-30T16:56:00.188Z,5.40
2022-09-30T16:58:27.884Z,3.30
2022-09-30T17:00:55.586Z,5.60
2022-09-30T17:03:23.272Z,3.70
2022-09-30T17:05:52.588Z,3.88
2022-09-30T17:08:23.815Z,4.18
2022-09-30T17:10:51.667Z,6.32
2022-09-30T17:13:20.230Z,4.15
2022-09-30T17:15:52.010Z,4.70
2022-09-30T17:18:20.738Z,3.25
2022-09-30T17:20:52.606Z,2.85
2022-09-30T17:23:23.501Z,3.88
2022-09-30T17:25:51.504Z,5.57
2022-09-30T17:28:19.351Z,4.70
2022-09-30T17:30:49.246Z,4.35
2022-09-30T17:33:17.283Z,4.32
2022-09-30T17:35:45.066Z,8.93
2022-09-30T17:38:14.295Z,4.15
2022-09-30T17:41:00.524Z,7.60
2022-09-30T17:43:28.209Z,4.05
2022-09-30T17:46:00.037Z,6.80
2022-09-30T17:48:27.744Z,7.55
2022-09-30T17:50:55.589Z,3.78
2022-09-30T17:53:23.932Z,3.25
2022-09-30T17:56:03.910Z,5.03
2022-09-30T17:58:31.636Z,8.75
2022-09-30T18:00:59.823Z,14.48
2022-09-30T18:03:28.156Z,13.90
2022-09-30T18:05:59.242Z,11.35
2022-09-30T18:08:28.099Z,12.77
2022-09-30T18:10:57.868Z,16.05
2022-09-30T18:13:25.920Z,13.88
2022-09-30T18:15:53.933Z,13.90
2022-09-30T18:18:21.650Z,13.15
2022-09-30T18:20:51.520Z,14.20
2022-09-30T18:23:19.515Z,11.00
2022-09-30T18:25:49.209Z,14.23
2022-09-30T18:28:18.448Z,13.45
2022-09-30T18:30:46.604Z,13.48
2022-09-30T18:33:17.182Z,16.10
2022-09-30T18:35:44.924Z,14.52
2022-09-30T18:38:14.805Z,18.58
2022-09-30T18:40:49.919Z,17.30
2022-09-30T18:43:19.315Z,12.48
2022-09-30T18:45:54.419Z,11.38
2022-09-30T18:48:22.123Z,10.60
2022-09-30T18:50:51.392Z,10.77
2022-09-30T18:53:20.406Z,11.40
2022-09-30T18:55:48.553Z,13.63
2022-09-30T18:58:17.169Z,9.93
2022-09-30T19:00:46.184Z,11.35
2022-09-30T19:03:16.084Z,8.52
2022-09-30T19:05:43.712Z,7.63
2022-09-30T19:08:12.514Z,9.77
2022-09-30T19:10:42.181Z,9.38
2022-09-30T19:13:10.177Z,6.80
2022-09-30T19:15:39.225Z,7.05
2022-09-30T19:18:08.208Z,7.25
2022-09-30T19:20:41.894Z,7.10
2022-09-30T19:23:10.761Z,7.03
2022-09-30T19:25:39.815Z,5.05
2022-09-30T19:28:07.503Z,4.88
2022-09-30T19:30:35.176Z,4.53
2022-09-30T19:33:02.802Z,5.88
2022-09-30T19:35:39.824Z,4.95
2022-09-30T19:38:09.244Z,5.68
2022-09-30T19:40:37.305Z,4.18
2022-09-30T19:43:05.273Z,5.03
2022-09-30T19:45:33.006Z,5.07
2022-09-30T19:48:00.887Z,6.70
2022-09-30T19:50:28.524Z,6.03
2022-09-30T19:52:57.902Z,4.07
2022-09-30T19:55:26.063Z,3.60
2022-09-30T19:57:53.945Z,5.80
2022-09-30T20:00:21.625Z,4.30
2022-09-30T20:02:52.608Z,3.97
2022-09-30T20:05:20.534Z,5.40
2022-09-30T20:07:50.943Z,8.13
2022-09-30T20:10:20.224Z,6.32
2022-09-30T20:12:47.851Z,23.67
2022-09-30T20:15:33.533Z,7.25
2022-09-30T20:18:01.168Z,5.15
2022-09-30T20:20:42.129Z,5.57
2022-09-30T20:23:09.726Z,4.75
2022-09-30T20:25:39.046Z,4.85
2022-09-30T20:28:07.318Z,5.70
2022-09-30T20:30:39.741Z,5.70
2022-09-30T20:33:07.349Z,4.90
2022-09-30T20:35:36.503Z,11.48
2022-09-30T20:38:04.527Z,12.23
2022-09-30T20:40:33.728Z,12.95
2022-09-30T20:43:04.082Z,8.00
2022-09-30T20:45:31.767Z,6.05
2022-09-30T20:47:59.394Z,7.03
2022-09-30T20:50:35.864Z,6.72
2022-09-30T20:53:09.043Z,4.97
2022-09-30T20:55:39.245Z,5.18
2022-09-30T20:58:09.363Z,6.10
2022-09-30T21:00:39.568Z,5.00
2022-09-30T21:03:09.500Z,7.13
2022-09-30T21:05:37.163Z,6.72
2022-09-30T21:08:07.273Z,5.30
2022-09-30T21:10:36.795Z,7.90
2022-09-30T21:13:10.358Z,7.22
2022-09-30T21:15:38.058Z,10.98
2022-09-30T21:18:05.735Z,7.70
2022-09-30T21:20:33.389Z,8.48
2022-09-30T21:23:03.248Z,7.38
2022-09-30T21:25:30.953Z,6.75
2022-09-30T21:27:58.638Z,9.63
2022-09-30T21:30:28.197Z,6.25
2022-09-30T21:32:55.815Z,9.23
2022-09-30T21:35:23.486Z,7.05
2022-09-30T21:37:51.132Z,6.88
2022-09-30T21:40:18.943Z,6.85
2022-09-30T21:42:46.567Z,10.95
2022-09-30T21:45:14.234Z,10.52
2022-09-30T21:47:43.193Z,7.43
2022-09-30T21:50:11.073Z,7.25
2022-09-30T21:52:39.151Z,9.05
2022-09-30T21:55:08.036Z,8.90
2022-09-30T21:57:35.717Z,9.15
2022-09-30T22:00:03.604Z,10.98
2022-09-30T22:02:31.327Z,9.75
2022-09-30T22:05:00.442Z,8.40
2022-09-30T22:07:28.105Z,10.88
2022-09-30T22:09:55.725Z,10.20
2022-09-30T22:12:23.331Z,7.53
2022-09-30T22:14:50.999Z,7.63
2022-09-30T22:17:18.679Z,10.50
2022-09-30T22:19:46.290Z,7.22
2022-09-30T22:22:15.259Z,6.50
2022-09-30T22:24:42.864Z,7.72
2022-09-30T22:27:11.317Z,7.70
2022-09-30T22:29:38.982Z,8.57
2022-09-30T22:32:06.722Z,8.05
2022-09-30T22:34:51.824Z,8.00
2022-09-30T22:37:38.223Z,7.93
2022-09-30T22:40:06.719Z,8.07
2022-09-30T22:42:35.705Z,9.65
2022-09-30T22:45:03.527Z,7.55
2022-09-30T22:47:31.726Z,7.20
2022-09-30T22:49:59.471Z,6.50
2022-09-30T22:52:31.945Z,8.38
2022-09-30T22:54:59.641Z,7.90
2022-09-30T22:57:27.335Z,8.07
2022-09-30T23:05:36.614Z,7.13
2022-09-30T23:08:04.227Z,7.30
2022-09-30T23:10:31.851Z,10.68
2022-09-30T23:13:00.292Z,8.52
2022-09-30T23:15:27.997Z,8.45
2022-09-30T23:17:55.602Z,11.23
2022-09-30T23:20:23.275Z,9.75
2022-09-30T23:22:52.232Z,11.82
2022-09-30T23:25:19.818Z,11.40
2022-09-30T23:27:48.832Z,12.02
2022-09-30T23:30:16.696Z,9.15
2022-09-30T23:32:44.303Z,10.15
2022-09-30T23:35:12.990Z,12.77
2022-09-30T23:37:40.729Z,9.50
2022-09-30T23:40:10.588Z,9.40
2022-09-30T23:42:38.182Z,15.90
2022-09-30T23:45:06.218Z,13.45
2022-09-30T23:47:34.384Z,10.73
2022-09-30T23:50:01.995Z,12.55
2022-09-30T23:52:29.887Z,13.00
2022-09-30T23:54:57.524Z,9.65
2022-09-30T23:57:26.533Z,9.27
2022-09-30T23:59:54.143Z,9.57
